Time,TemperatureF,DewpointF,PressureIn,WindDirection,WindDirectionDegrees,WindSpeedMPH,WindSpeedGustMPH,Humidity,HourlyPrecipIn,Conditions,Clouds,dailyrainin,SoftwareType,DateUTC
2013-04-03 00:01:00,23.7,14.4,30.34,NNW,347,0.0,0.0,67,0.00,,---,0.00,VWS V14.01,2013-04-03 04:01:00,
2013-04-03 00:16:00,23.8,14.8,30.34,NNW,347,0.0,0.0,68,0.00,,---,0.00,VWS V14.01,2013-04-03 04:16:00,
2013-04-03 00:31:00,24.1,14.7,30.34,NNW,347,0.0,0.0,67,0.00,,---,0.00,VWS V14.01,2013-04-03 04:31:00,
2013-04-03 00:46:00,23.8,16.1,30.34,NNW,347,0.0,1.0,72,0.00,,---,0.00,VWS V14.01,2013-04-03 04:46:00,
2013-04-03 01:01:00,23.3,15.3,30.34,NNW,347,0.0,0.0,71,0.00,,---,0.00,VWS V14.01,2013-04-03 05:01:00,
2013-04-03 02:01:00,21.9,14.6,30.35,NNW,347,0.0,0.0,73,0.00,,---,0.00,VWS V14.01,2013-04-03 06:01:00,
2013-04-03 02:16:00,21.7,14.7,30.35,NNW,347,0.0,0.0,74,0.00,,---,0.00,VWS V14.01,2013-04-03 06:16:00,
2013-04-03 02:31:00,21.0,14.9,30.36,NNW,347,0.0,0.0,77,0.00,,---,0.00,VWS V14.01,2013-04-03 06:31:00,
2013-04-03 04:01:00,19.4,14.5,30.36,NNW,347,0.0,0.0,81,0.00,,---,0.00,VWS V14.01,2013-04-03 08:01:00,
2013-04-03 04:16:00,19.1,14.8,30.36,NNW,347,0.0,0.0,83,0.00,,---,0.00,VWS V14.01,2013-04-03 08:16:00,
2013-04-03 04:31:00,18.6,14.6,30.37,NNW,347,0.0,0.0,84,0.00,,---,0.00,VWS V14.01,2013-04-03 08:31:00,
2013-04-03 04:46:00,18.6,14.9,30.38,NNW,347,0.0,0.0,85,0.00,,---,0.00,VWS V14.01,2013-04-03 08:46:00,
2013-04-03 05:01:00,18.6,14.9,30.38,NNW,347,0.0,1.0,85,0.00,,---,0.00,VWS V14.01,2013-04-03 09:01:00,
2013-04-03 05:16:00,18.2,14.7,30.38,NNW,347,0.0,0.0,86,0.00,,---,0.00,VWS V14.01,2013-04-03 09:16:00,
2013-04-03 05:31:00,18.3,14.6,30.38,NNW,347,0.0,0.0,85,0.00,,---,0.00,VWS V14.01,2013-04-03 09:31:00,
2013-04-03 06:01:00,18.0,14.8,30.39,NNW,347,0.0,0.0,87,0.00,,---,0.00,VWS V14.01,2013-04-03 10:01:00,
2013-04-03 06:31:00,18.7,15.5,30.40,NNW,347,0.0,0.0,87,0.00,,---,0.00,VWS V14.01,2013-04-03 10:31:00,
2013-04-03 07:01:00,18.4,14.6,30.41,NNW,347,0.0,0.0,85,0.00,,---,0.00,VWS V14.01,2013-04-03 11:01:00,
2013-04-03 07:46:00,19.3,15.0,30.42,NNW,347,0.0,1.0,83,0.00,,---,0.00,VWS V14.01,2013-04-03 11:46:00,
2013-04-03 09:01:00,27.9,21.3,30.44,NNW,336,2.0,4.0,76,0.00,,---,0.00,VWS V14.01,2013-04-03 13:01:00,
2013-04-03 10:46:00,36.1,14.1,30.48,NE,38,8.0,11.0,40,0.00,,---,0.00,VWS V14.01,2013-04-03 14:46:00,
2013-04-03 11:16:00,36.8,15.3,30.48,NE,52,4.0,12.0,41,0.00,,---,0.00,VWS V14.01,2013-04-03 15:16:00,
2013-04-03 11:46:00,38.2,15.4,30.48,NE,38,5.0,11.0,39,0.00,,---,0.00,VWS V14.01,2013-04-03 15:46:00,
2013-04-03 12:16:00,38.4,14.4,30.49,North,9,5.0,12.0,37,0.00,,---,0.00,VWS V14.01,2013-04-03 16:16:00,
2013-04-03 12:31:00,38.4,14.4,30.48,West,273,8.0,12.0,37,0.00,,---,0.00,VWS V14.01,2013-04-03 16:31:00,
2013-04-03 13:01:00,39.6,14.9,30.47,NNW,332,4.0,14.0,36,0.00,,---,0.00,VWS V14.01,2013-04-03 17:01:00,
2013-04-03 13:31:00,40.0,11.8,30.47,NW,312,2.0,12.0,31,0.00,,---,0.00,VWS V14.01,2013-04-03 17:31:00,
2013-04-03 15:01:00,41.2,10.6,30.46,North,355,2.0,13.0,28,0.00,,---,0.00,VWS V14.01,2013-04-03 19:01:00,
2013-04-03 15:16:00,41.3,10.7,30.45,ENE,78,2.0,11.0,28,0.00,,---,0.00,VWS V14.01,2013-04-03 19:16:00,
2013-04-03 16:46:00,42.7,15.6,30.42,NNW,334,5.0,11.0,33,0.00,,---,0.00,VWS V14.01,2013-04-03 20:46:00,
2013-04-03 17:16:00,42.5,16.8,30.41,NW,323,5.0,10.0,35,0.00,,---,0.00,VWS V14.01,2013-04-03 21:16:00,
2013-04-03 17:46:00,42.1,15.8,30.40,NNE,24,3.0,9.0,34,0.00,,---,0.00,VWS V14.01,2013-04-03 21:46:00,
2013-04-03 18:01:00,42.2,17.2,30.41,NNW,331,3.0,7.0,36,0.00,,---,0.00,VWS V14.01,2013-04-03 22:01:00,
2013-04-03 18:16:00,41.5,17.8,30.41,NNW,347,4.0,8.0,38,0.00,,---,0.00,VWS V14.01,2013-04-03 22:16:00,
2013-04-03 18:31:00,41.8,17.5,30.41,NNW,346,4.0,7.0,37,0.00,,---,0.00,VWS V14.01,2013-04-03 22:31:00,
2013-04-03 19:01:00,40.1,18.9,30.41,NNW,340,4.0,7.0,42,0.00,,---,0.00,VWS V14.01,2013-04-03 23:01:00,
2013-04-03 19:16:00,38.6,18.6,30.41,NW,311,4.0,10.0,44,0.00,,---,0.00,VWS V14.01,2013-04-03 23:16:00,
2013-04-03 19:31:00,37.2,18.8,30.41,NW,313,6.0,10.0,47,0.00,,---,0.00,VWS V14.01,2013-04-03 23:31:00,
2013-04-03 19:46:00,36.2,19.4,30.41,NNW,329,1.0,9.0,50,0.00,,---,0.00,VWS V14.01,2013-04-03 23:46:00,
2013-04-03 20:31:00,33.6,19.2,30.41,NW,315,2.0,5.0,55,0.00,,---,0.00,VWS V14.01,2013-04-04 00:31:00,
2013-04-03 20:46:00,32.7,19.6,30.40,NW,315,2.0,4.0,58,0.00,,---,0.00,VWS V14.01,2013-04-04 00:46:00,
2013-04-03 21:01:00,31.8,19.5,30.40,NW,315,0.0,2.0,60,0.00,,---,0.00,VWS V14.01,2013-04-04 01:01:00,
2013-04-03 21:16:00,31.1,19.2,30.40,NW,315,0.0,2.0,61,0.00,,---,0.00,VWS V14.01,2013-04-04 01:16:00,
2013-04-03 21:46:00,30.2,19.5,30.41,NW,315,2.0,3.0,64,0.00,,---,0.00,VWS V14.01,2013-04-04 01:46:00,
2013-04-03 22:01:00,29.8,19.1,30.41,NW,315,0.0,2.0,64,0.00,,---,0.00,VWS V14.01,2013-04-04 02:01:00,
2013-04-03 22:46:00,28.7,18.8,30.41,NW,315,0.0,1.0,66,0.00,,---,0.00,VWS V14.01,2013-04-04 02:46:00,
2013-04-03 23:01:00,28.4,18.9,30.40,NW,315,0.0,1.0,67,0.00,,---,0.00,VWS V14.01,2013-04-04 03:01:00,
2013-04-03 23:16:00,28.0,18.8,30.39,NW,315,0.0,1.0,68,0.00,,---,0.00,VWS V14.01,2013-04-04 03:16:00,